Winnie, TX (77665)

5:19 PM CDT on September 01, 2015 (GMT -0500)
Burrell Cove | | Change Station
CLOSE
Current Station
Personal Weather Station
Location: Beaumont, TX
Elevation: 16 ft
Nearby Weather Stations

Elev 16 ft 29.89 °N, 94.22 °W | Updated 12 seconds ago

Rain
Rain
77.9 °F
Feels Like 80 °F
N
0.0
Wind Variable Wind from SE
Gusts 0.0 mph

Today
High -- | Low -- °F
--% Chance of Precip.
Yesterday
High -- | Low -- °F
Precip. -- in
6:54 AM 7:39 PM
Waning Gibbous, 86% visible
Pressure 30.05 in
Visibility 10.0 miles
Clouds Scattered Clouds 4000 ft
Scattered Clouds 4700 ft
Scattered Clouds 5000 ft
Heat Index 80 °F
Dew Point 76 °F
Humidity 93%
Rainfall 0.13 in
Snow Depth Not available.
UV 3 out of 12
Pollen 5.70 out of 12
Air Quality Not available.
Flu Activity Not available.
METAR KBMT 012155Z AUTO 00000KT 10SM RA SCT040 SCT047 SCT050 24/23 A3005 RMK AO2 T02380227
Pressure 30.05 in
Visibility 10.0 miles
Clouds Scattered Clouds 4000 ft
Scattered Clouds 4700 ft
Scattered Clouds 5000 ft
Heat Index 80 °F
Dew Point 76 °F
Humidity 93%
Rainfall 0.13 in
Snow Depth Not available.
UV 3 out of 12
Pollen 5.70 out of 12
Air Quality Not available.
Flu Activity Not available.
METAR KBMT 012155Z AUTO 00000KT 10SM RA SCT040 SCT047 SCT050 24/23 A3005 RMK AO2 T02380227

10-Day Weather Forecast

×

Almanac

Astronomy

Sep. 01, 2015 Rise Set
Actual Time
Civil Twilight
Nautical Twilight
Astronomical Twilight
Moon
Length of Visible Light
Length of Day
Tomorrow will be .
, % of the Moon is Illuminated

Today's Extremes

State Highs State Lows

Community

WunderPhotos

Upload Photos

1,851,632 photos uploaded!

WunderBlogs® & News

Nearby

Air Quality

  Air Quality AQ Index Pollutant
Not available.

Snow Depth

Station Depth Elevation

Earthquake Activity

City Distance Mag. Time & Date
Minimum magnitude displayed is 2.5.

Coastal Water Temperatures

Place Temperature

Stations

Nearby Weather Stations

Station Location Temp. Windchill Dew Point Humidity Wind Precip. Elev Updated Type